createdAt,value
2022-11-24T00:00:45.198Z,4
2022-11-24T00:01:47.960Z,3
2022-11-24T00:02:51.064Z,3
2022-11-24T00:03:54.133Z,2
2022-11-24T00:04:56.765Z,3
2022-11-24T00:05:59.389Z,3
2022-11-24T00:07:02.031Z,4
2022-11-24T00:08:04.664Z,3
2022-11-24T00:09:07.265Z,4
2022-11-24T00:10:09.945Z,4
2022-11-24T00:11:12.605Z,4
2022-11-24T00:12:15.249Z,4
2022-11-24T00:13:17.916Z,3
2022-11-24T00:14:20.533Z,3
2022-11-24T00:15:23.133Z,4
2022-11-24T00:16:26.033Z,3
2022-11-24T00:17:28.756Z,3
2022-11-24T00:18:31.396Z,3
2022-11-24T00:19:34.015Z,3
2022-11-24T00:20:36.628Z,3
2022-11-24T00:21:39.316Z,3
2022-11-24T00:22:41.960Z,3
2022-11-24T00:23:44.591Z,4
2022-11-24T00:24:47.238Z,4
2022-11-24T00:25:49.894Z,3
2022-11-24T00:26:52.607Z,3
2022-11-24T00:27:55.261Z,3
2022-11-24T00:28:57.950Z,3
2022-11-24T00:30:00.575Z,3
2022-11-24T00:31:03.329Z,4
2022-11-24T00:32:06.270Z,3
2022-11-24T00:33:08.884Z,3
2022-11-24T00:34:12.060Z,4
2022-11-24T00:35:14.692Z,3
2022-11-24T00:36:17.368Z,3
2022-11-24T00:37:19.986Z,3
2022-11-24T00:38:22.642Z,3
2022-11-24T00:39:25.275Z,4
2022-11-24T00:40:35.063Z,4
2022-11-24T00:41:37.583Z,4
2022-11-24T00:42:40.195Z,3
2022-11-24T00:43:42.785Z,3
2022-11-24T00:44:45.441Z,3
2022-11-24T00:45:48.368Z,3
2022-11-24T00:46:51.457Z,4
2022-11-24T00:47:54.601Z,4
2022-11-24T00:48:57.222Z,3
2022-11-24T00:49:59.833Z,3
2022-11-24T00:51:02.439Z,3
2022-11-24T00:52:05.078Z,3
2022-11-24T00:53:07.759Z,3
2022-11-24T00:54:10.331Z,3
2022-11-24T00:55:12.943Z,2
2022-11-24T00:56:15.583Z,3
2022-11-24T00:57:18.260Z,4
2022-11-24T00:58:20.924Z,4
2022-11-24T00:59:23.574Z,3
2022-11-24T01:00:26.228Z,4
2022-11-24T01:01:29.155Z,4
2022-11-24T01:02:32.130Z,3
2022-11-24T01:03:34.929Z,4
2022-11-24T01:04:37.776Z,3
2022-11-24T01:05:40.378Z,4
2022-11-24T01:06:42.997Z,4
2022-11-24T01:07:45.693Z,4
2022-11-24T01:08:48.469Z,4
2022-11-24T01:09:51.110Z,4
2022-11-24T01:10:53.729Z,3
2022-11-24T01:11:56.335Z,3
2022-11-24T01:12:59.034Z,3
2022-11-24T01:14:01.665Z,3
2022-11-24T01:15:04.325Z,3
2022-11-24T01:16:07.125Z,3
2022-11-24T01:17:10.235Z,3
2022-11-24T01:18:12.822Z,3
2022-11-24T01:19:15.503Z,4
2022-11-24T01:20:18.150Z,3
2022-11-24T01:21:20.765Z,4
2022-11-24T01:22:23.401Z,4
2022-11-24T01:23:26.007Z,4
2022-11-24T01:24:28.625Z,4
2022-11-24T01:25:31.254Z,4
2022-11-24T01:26:33.900Z,4
2022-11-24T01:27:36.501Z,4
2022-11-24T01:28:46.923Z,4
2022-11-24T01:29:50.230Z,4
2022-11-24T01:30:52.965Z,4
2022-11-24T01:31:55.786Z,4
2022-11-24T01:32:58.404Z,4
2022-11-24T01:34:01.038Z,4
2022-11-24T01:35:03.688Z,4
2022-11-24T01:36:06.292Z,4
2022-11-24T01:37:08.908Z,3
2022-11-24T01:38:11.738Z,4
2022-11-24T01:39:14.400Z,4
2022-11-24T01:40:17.030Z,4
2022-11-24T01:41:20.269Z,3
2022-11-24T01:42:22.851Z,4
2022-11-24T01:43:25.460Z,4
2022-11-24T01:44:28.166Z,3
2022-11-24T01:45:30.795Z,4
2022-11-24T01:46:33.644Z,5
2022-11-24T01:47:36.686Z,4
2022-11-24T01:48:39.744Z,4
2022-11-24T01:49:42.377Z,4
2022-11-24T01:50:44.976Z,4
2022-11-24T01:51:47.614Z,5
2022-11-24T01:52:53.759Z,4
2022-11-24T01:53:59.645Z,4
2022-11-24T01:55:02.002Z,4
2022-11-24T01:56:04.607Z,4
2022-11-24T01:57:07.248Z,4
2022-11-24T01:58:09.899Z,4
2022-11-24T01:59:12.483Z,5
2022-11-24T02:00:15.164Z,4
2022-11-24T02:01:17.876Z,4
2022-11-24T02:02:20.755Z,4
2022-11-24T02:03:23.564Z,4
2022-11-24T02:04:26.170Z,4
2022-11-24T02:05:28.786Z,4
2022-11-24T02:06:31.446Z,4
2022-11-24T02:07:34.240Z,4
2022-11-24T02:08:36.890Z,4
2022-11-24T02:09:39.480Z,6
2022-11-24T02:10:43.634Z,5
2022-11-24T02:11:46.180Z,4
2022-11-24T02:12:48.825Z,4
2022-11-24T02:13:51.459Z,4
2022-11-24T02:14:54.085Z,4
2022-11-24T02:15:56.908Z,4
2022-11-24T02:16:59.722Z,4
2022-11-24T02:18:02.370Z,4
2022-11-24T02:19:05.008Z,4
2022-11-24T02:20:07.630Z,4
2022-11-24T02:21:10.228Z,4
2022-11-24T02:22:12.849Z,5
2022-11-24T02:23:15.476Z,4
2022-11-24T02:24:18.106Z,5
2022-11-24T02:25:20.733Z,5
2022-11-24T02:26:23.358Z,4
2022-11-24T02:27:25.991Z,6
2022-11-24T02:28:28.607Z,4
2022-11-24T02:29:31.259Z,4
2022-11-24T02:30:33.879Z,4
2022-11-24T02:31:36.660Z,4
2022-11-24T02:32:39.471Z,4
2022-11-24T02:33:42.068Z,5
2022-11-24T02:34:44.726Z,4
2022-11-24T02:35:47.336Z,4
2022-11-24T02:36:49.989Z,4
2022-11-24T02:37:52.787Z,5
2022-11-24T02:38:55.404Z,5
2022-11-24T02:39:58.032Z,5
2022-11-24T02:41:00.641Z,5
2022-11-24T02:42:03.232Z,6
2022-11-24T02:43:05.905Z,4
2022-11-24T02:44:08.497Z,5
2022-11-24T02:45:11.096Z,5
2022-11-24T02:46:13.849Z,4
2022-11-24T02:47:16.666Z,4
2022-11-24T02:48:19.319Z,4
2022-11-24T02:49:22.089Z,4
2022-11-24T02:50:24.717Z,5
2022-11-24T02:51:27.333Z,4
2022-11-24T02:52:29.944Z,4
2022-11-24T02:53:32.567Z,5
2022-11-24T02:54:36.020Z,5
2022-11-24T02:55:39.730Z,5
2022-11-24T02:56:42.368Z,5
2022-11-24T02:57:44.928Z,5
2022-11-24T02:58:47.547Z,5
2022-11-24T02:59:50.165Z,5
2022-11-24T03:00:52.970Z,4
2022-11-24T03:01:55.639Z,7
2022-11-24T03:02:58.579Z,6
2022-11-24T03:04:01.379Z,5
2022-11-24T03:05:03.968Z,4
2022-11-24T03:06:06.793Z,4
2022-11-24T03:07:09.533Z,5
2022-11-24T03:08:12.380Z,6
2022-11-24T03:09:15.000Z,5
2022-11-24T03:10:17.622Z,5
2022-11-24T03:11:20.245Z,5
2022-11-24T03:12:22.854Z,5
2022-11-24T03:13:25.429Z,5
2022-11-24T03:14:28.040Z,4
2022-11-24T03:15:30.841Z,4
2022-11-24T03:16:33.696Z,5
2022-11-24T03:17:36.333Z,4
2022-11-24T03:18:38.999Z,5
2022-11-24T03:19:41.613Z,5
2022-11-24T03:20:44.241Z,5
2022-11-24T03:21:46.918Z,7
2022-11-24T03:22:49.544Z,5
2022-11-24T03:23:52.185Z,6
2022-11-24T03:24:54.810Z,5
2022-11-24T03:25:57.411Z,5
2022-11-24T03:27:00.100Z,4
2022-11-24T03:28:02.733Z,5
2022-11-24T03:29:05.362Z,4
2022-11-24T03:30:07.974Z,4
2022-11-24T03:31:10.710Z,6
2022-11-24T03:32:13.473Z,5
2022-11-24T03:33:16.091Z,5
2022-11-24T03:34:18.742Z,7
2022-11-24T03:35:21.397Z,5
2022-11-24T03:36:24.038Z,5
2022-11-24T03:37:26.700Z,5
2022-11-24T03:38:29.321Z,4
2022-11-24T03:39:31.926Z,5
2022-11-24T03:40:34.567Z,6
2022-11-24T03:41:37.219Z,6
2022-11-24T03:42:39.826Z,4
2022-11-24T03:43:44.513Z,6
2022-11-24T03:44:47.002Z,6
2022-11-24T03:45:49.613Z,5
2022-11-24T03:46:52.276Z,7
2022-11-24T03:47:54.911Z,6
2022-11-24T03:48:57.500Z,5
2022-11-24T03:50:00.224Z,7
2022-11-24T03:51:02.838Z,5
2022-11-24T03:52:08.532Z,5
2022-11-24T03:53:10.993Z,4
2022-11-24T03:54:13.664Z,5
2022-11-24T03:55:26.364Z,5
2022-11-24T03:56:28.568Z,6
2022-11-24T03:57:31.149Z,5
2022-11-24T03:58:33.748Z,5
2022-11-24T03:59:36.377Z,5
2022-11-24T04:00:38.983Z,5
2022-11-24T04:01:41.706Z,6
2022-11-24T04:02:44.705Z,4
2022-11-24T04:03:47.484Z,4
2022-11-24T04:04:50.100Z,5
2022-11-24T04:05:52.774Z,5
2022-11-24T04:06:55.396Z,5
2022-11-24T04:07:58.037Z,5
2022-11-24T04:09:00.888Z,4
2022-11-24T04:10:03.497Z,4
2022-11-24T04:11:06.135Z,4
2022-11-24T04:12:08.741Z,5
2022-11-24T04:13:11.340Z,6
2022-11-24T04:14:14.124Z,6
2022-11-24T04:15:16.700Z,5
2022-11-24T04:16:19.434Z,5
2022-11-24T04:17:22.223Z,4
2022-11-24T04:18:24.857Z,4
2022-11-24T04:19:27.777Z,6
2022-11-24T04:20:30.760Z,5
2022-11-24T04:21:33.428Z,5
2022-11-24T04:22:36.008Z,7
2022-11-24T04:23:38.619Z,6
2022-11-24T04:24:41.275Z,6
2022-11-24T04:25:43.965Z,7
2022-11-24T04:26:46.563Z,5
2022-11-24T04:27:49.192Z,6
2022-11-24T04:28:51.814Z,7
2022-11-24T04:29:54.434Z,6
2022-11-24T04:30:57.122Z,6
2022-11-24T04:31:59.854Z,6
2022-11-24T04:33:02.482Z,6
2022-11-24T04:34:05.111Z,7
2022-11-24T04:35:07.737Z,6
2022-11-24T04:36:10.343Z,7
2022-11-24T04:37:13.125Z,6
2022-11-24T04:39:20.595Z,5
2022-11-24T04:39:37.576Z,6
2022-11-24T04:40:40.154Z,5
2022-11-24T04:41:42.717Z,7
2022-11-24T04:42:45.355Z,6
2022-11-24T04:43:47.969Z,6
2022-11-24T04:44:50.607Z,6
2022-11-24T04:45:53.231Z,5
2022-11-24T04:46:56.003Z,6
2022-11-24T04:47:58.787Z,6
2022-11-24T04:49:01.402Z,7
2022-11-24T04:50:04.031Z,8
2022-11-24T04:51:06.675Z,6
2022-11-24T04:52:09.331Z,6
2022-11-24T04:53:11.987Z,8
2022-11-24T04:54:14.616Z,6
2022-11-24T04:55:17.227Z,7
2022-11-24T04:56:19.850Z,7
2022-11-24T04:57:22.469Z,6
2022-11-24T04:58:25.121Z,7
2022-11-24T04:59:27.748Z,6
2022-11-24T05:00:30.362Z,7
2022-11-24T05:01:33.018Z,7
2022-11-24T05:02:35.816Z,7
2022-11-24T05:03:38.372Z,7
2022-11-24T05:04:41.110Z,7
2022-11-24T05:05:43.937Z,6
2022-11-24T05:06:46.546Z,7
2022-11-24T05:07:49.271Z,7
2022-11-24T05:08:52.083Z,7
2022-11-24T05:09:59.811Z,7
2022-11-24T05:11:02.143Z,7
2022-11-24T05:12:04.773Z,7
2022-11-24T05:13:07.413Z,8
2022-11-24T05:14:10.016Z,10
2022-11-24T05:15:12.664Z,8
2022-11-24T05:16:15.498Z,10
2022-11-24T05:17:18.494Z,8
2022-11-24T05:18:21.145Z,7
2022-11-24T05:19:31.186Z,7
2022-11-24T05:20:34.841Z,8
2022-11-24T05:21:37.465Z,6
2022-11-24T05:22:40.053Z,6
2022-11-24T05:23:52.684Z,7
2022-11-24T05:24:54.959Z,9
2022-11-24T05:25:57.607Z,7
2022-11-24T05:27:00.251Z,7
2022-11-24T05:28:02.904Z,8
2022-11-24T05:29:05.540Z,7
2022-11-24T05:30:08.189Z,7
2022-11-24T05:31:10.883Z,6
2022-11-24T05:32:13.645Z,6
2022-11-24T05:33:16.384Z,10
2022-11-24T05:34:19.024Z,7
2022-11-24T05:35:21.613Z,6
2022-11-24T05:36:24.254Z,7
2022-11-24T05:37:26.886Z,8
2022-11-24T05:38:29.557Z,7
2022-11-24T05:39:32.224Z,7
2022-11-24T05:40:34.948Z,7
2022-11-24T05:41:37.537Z,8
2022-11-24T05:42:47.933Z,7
2022-11-24T05:43:50.661Z,7
2022-11-24T05:44:53.256Z,7
2022-11-24T05:45:55.916Z,7
2022-11-24T05:46:58.684Z,7
2022-11-24T05:48:01.484Z,7
2022-11-24T05:49:04.106Z,6
2022-11-24T05:50:06.780Z,6
2022-11-24T05:51:09.747Z,8
2022-11-24T05:52:12.392Z,7
2022-11-24T05:53:15.258Z,7
2022-11-24T05:54:17.870Z,7
2022-11-24T05:55:20.502Z,5
2022-11-24T05:56:23.259Z,6
2022-11-24T05:57:25.935Z,6
2022-11-24T05:58:28.773Z,5
2022-11-24T05:59:32.088Z,6
2022-11-24T06:00:37.481Z,6
2022-11-24T06:01:40.424Z,7
2022-11-24T06:02:43.614Z,8
2022-11-24T06:03:46.512Z,7
2022-11-24T06:04:49.118Z,7
2022-11-24T06:05:52.487Z,7
2022-11-24T06:06:57.574Z,10
2022-11-24T06:08:00.047Z,9
2022-11-24T06:09:02.695Z,7
2022-11-24T06:10:05.328Z,8
2022-11-24T06:11:07.931Z,8
2022-11-24T06:12:10.632Z,7
2022-11-24T06:13:13.483Z,7
2022-11-24T06:14:16.906Z,10
2022-11-24T06:15:19.600Z,7
2022-11-24T06:16:22.397Z,7
2022-11-24T06:17:25.202Z,8
2022-11-24T06:18:27.807Z,8
2022-11-24T06:19:30.441Z,8
2022-11-24T06:20:33.394Z,10
2022-11-24T06:21:35.971Z,8
2022-11-24T06:22:38.599Z,7
2022-11-24T06:23:41.226Z,7
2022-11-24T06:24:43.848Z,7
2022-11-24T06:25:51.783Z,9
2022-11-24T06:26:54.136Z,8
2022-11-24T06:27:56.805Z,8
2022-11-24T06:28:59.480Z,7
2022-11-24T06:30:02.120Z,8
2022-11-24T06:31:04.759Z,8
2022-11-24T06:32:07.631Z,10
2022-11-24T06:33:10.541Z,8
2022-11-24T06:34:13.202Z,8
2022-11-24T06:35:15.871Z,8
2022-11-24T06:36:18.502Z,8
2022-11-24T06:37:21.148Z,7
2022-11-24T06:38:24.579Z,8
2022-11-24T06:39:27.132Z,8
2022-11-24T06:40:29.748Z,7
2022-11-24T06:41:32.427Z,8
2022-11-24T06:42:35.061Z,9
2022-11-24T06:43:37.772Z,8
2022-11-24T06:44:40.435Z,10
2022-11-24T06:45:43.110Z,8
2022-11-24T06:46:45.959Z,8
2022-11-24T06:47:48.615Z,7
2022-11-24T06:48:51.230Z,8
2022-11-24T06:49:53.898Z,8
2022-11-24T06:50:56.556Z,8
2022-11-24T06:51:59.218Z,8
2022-11-24T06:53:01.808Z,8
2022-11-24T06:54:04.437Z,9
2022-11-24T06:55:07.089Z,7
2022-11-24T06:56:16.490Z,7
2022-11-24T06:57:19.337Z,9
2022-11-24T06:58:21.976Z,11
2022-11-24T06:59:24.677Z,13
2022-11-24T07:00:27.330Z,15
2022-11-24T07:01:30.002Z,13
2022-11-24T07:02:45.969Z,10
2022-11-24T07:03:48.572Z,11
2022-11-24T07:04:51.121Z,11
2022-11-24T07:05:53.708Z,7
2022-11-24T07:06:56.357Z,8
2022-11-24T07:07:59.006Z,7
2022-11-24T07:09:01.628Z,9
2022-11-24T07:10:04.323Z,7
2022-11-24T07:11:14.496Z,7
2022-11-24T07:12:18.730Z,7
2022-11-24T07:13:21.219Z,8
2022-11-24T07:14:23.855Z,10
2022-11-24T07:15:26.546Z,11
2022-11-24T07:16:29.446Z,13
2022-11-24T07:17:32.271Z,11
2022-11-24T07:18:34.931Z,12
2022-11-24T07:19:37.607Z,13
2022-11-24T07:20:40.210Z,14
2022-11-24T07:21:42.848Z,17
2022-11-24T07:22:45.488Z,16
2022-11-24T07:23:48.107Z,14
2022-11-24T07:24:50.726Z,14
2022-11-24T07:25:53.336Z,13
2022-11-24T07:26:56.007Z,12
2022-11-24T07:27:58.661Z,10
2022-11-24T07:29:01.277Z,10
2022-11-24T07:30:03.906Z,8
2022-11-24T07:31:06.588Z,8
2022-11-24T07:32:09.385Z,10
2022-11-24T07:33:12.794Z,8
2022-11-24T07:34:15.423Z,9
2022-11-24T07:35:18.041Z,7
2022-11-24T07:36:20.677Z,10
2022-11-24T07:37:31.473Z,9
2022-11-24T07:38:34.264Z,11
2022-11-24T07:39:36.901Z,26
2022-11-24T07:40:39.526Z,27
2022-11-24T07:41:42.180Z,26
2022-11-24T07:42:44.825Z,20
2022-11-24T07:43:48.091Z,21
2022-11-24T07:44:50.704Z,19
2022-11-24T07:45:53.457Z,17
2022-11-24T07:46:56.343Z,17
2022-11-24T07:47:59.012Z,16
2022-11-24T07:49:01.674Z,17
2022-11-24T07:50:04.317Z,17
2022-11-24T07:51:06.952Z,14
2022-11-24T07:52:09.601Z,14
2022-11-24T07:53:12.279Z,11
2022-11-24T07:54:16.436Z,11
2022-11-24T07:55:18.982Z,11
2022-11-24T07:56:21.604Z,11
2022-11-24T07:57:24.757Z,9
2022-11-24T07:58:33.237Z,7
2022-11-24T07:59:35.733Z,7
2022-11-24T08:00:38.378Z,7
2022-11-24T08:01:41.267Z,7
2022-11-24T08:02:44.613Z,7
2022-11-24T08:03:47.547Z,7
2022-11-24T08:04:50.461Z,7
2022-11-24T08:06:22.684Z,7
2022-11-24T08:07:15.090Z,8
2022-11-24T08:08:17.761Z,7
2022-11-24T08:09:20.404Z,7
2022-11-24T08:10:23.596Z,6
2022-11-24T08:11:26.187Z,6
2022-11-24T08:12:28.827Z,5
2022-11-24T08:13:31.448Z,5
2022-11-24T08:14:37.610Z,6
2022-11-24T08:15:40.011Z,6
2022-11-24T08:16:42.868Z,6
2022-11-24T08:17:45.676Z,6
2022-11-24T08:18:48.377Z,6
2022-11-24T08:19:51.032Z,6
2022-11-24T08:20:53.695Z,5
2022-11-24T08:21:56.443Z,4
2022-11-24T08:22:59.083Z,6
2022-11-24T08:24:02.213Z,5
2022-11-24T08:25:04.888Z,5
2022-11-24T08:26:07.554Z,6
2022-11-24T08:27:10.218Z,5
2022-11-24T08:28:12.851Z,7
2022-11-24T08:29:15.507Z,6
2022-11-24T08:30:18.499Z,7
2022-11-24T08:31:21.329Z,5
2022-11-24T08:32:24.324Z,4
2022-11-24T08:33:27.177Z,7
2022-11-24T08:34:29.862Z,6
2022-11-24T08:35:32.509Z,6
2022-11-24T08:36:35.198Z,5
2022-11-24T08:37:37.905Z,5
2022-11-24T08:38:44.099Z,5
2022-11-24T08:39:46.526Z,7
2022-11-24T08:40:49.132Z,7
2022-11-24T08:41:51.811Z,5
2022-11-24T08:42:54.464Z,5
2022-11-24T08:43:57.099Z,6
2022-11-24T08:45:19.704Z,6
2022-11-24T08:46:21.838Z,7
2022-11-24T08:47:24.720Z,6
2022-11-24T08:48:27.337Z,5
2022-11-24T08:49:30.074Z,6
2022-11-24T08:50:32.773Z,6
2022-11-24T08:51:35.616Z,5
2022-11-24T08:52:38.527Z,7
2022-11-24T08:53:41.187Z,6
2022-11-24T08:54:43.892Z,7
2022-11-24T08:55:46.528Z,6
2022-11-24T08:56:49.240Z,7
2022-11-24T08:57:51.906Z,7
2022-11-24T08:58:54.758Z,7
2022-11-24T08:59:57.821Z,7
2022-11-24T09:01:00.735Z,7
2022-11-24T09:02:03.615Z,7
2022-11-24T09:03:06.494Z,7
2022-11-24T09:04:09.323Z,8
2022-11-24T09:05:43.521Z,7
2022-11-24T09:06:34.177Z,7
2022-11-24T09:07:37.405Z,8
2022-11-24T09:08:40.166Z,8
2022-11-24T09:09:42.848Z,7
2022-11-24T09:10:45.501Z,7
2022-11-24T09:11:48.135Z,9
2022-11-24T09:12:50.788Z,7
2022-11-24T09:13:53.458Z,8
2022-11-24T09:14:56.084Z,8
2022-11-24T09:15:58.831Z,8
2022-11-24T09:17:01.774Z,7
2022-11-24T09:18:04.532Z,7
2022-11-24T09:19:07.194Z,8
2022-11-24T09:20:09.834Z,7
2022-11-24T09:21:12.481Z,8
2022-11-24T09:22:15.200Z,7
2022-11-24T09:23:17.833Z,7
2022-11-24T09:24:20.476Z,8
2022-11-24T09:25:23.199Z,8
2022-11-24T09:26:25.836Z,7
2022-11-24T09:27:28.567Z,7
2022-11-24T09:28:31.277Z,7
2022-11-24T09:29:34.371Z,8
2022-11-24T09:30:37.764Z,7
2022-11-24T09:31:40.504Z,7
2022-11-24T09:32:43.145Z,7
2022-11-24T09:33:45.836Z,7
2022-11-24T09:34:48.494Z,6
2022-11-24T09:35:51.142Z,6
2022-11-24T09:36:53.821Z,8
2022-11-24T09:37:56.464Z,10
2022-11-24T09:38:59.232Z,8
2022-11-24T09:40:02.265Z,8
2022-11-24T09:41:05.060Z,7
2022-11-24T09:42:07.742Z,7
2022-11-24T09:43:10.396Z,8
2022-11-24T09:44:13.044Z,7
2022-11-24T09:45:15.735Z,7
2022-11-24T09:46:19.077Z,8
2022-11-24T09:47:22.158Z,8
2022-11-24T09:48:24.718Z,6
2022-11-24T09:49:27.328Z,8
2022-11-24T09:50:30.026Z,10
2022-11-24T09:51:33.228Z,11
2022-11-24T09:52:45.996Z,10
2022-11-24T09:53:48.314Z,8
2022-11-24T09:54:51.142Z,8
2022-11-24T09:55:53.790Z,7
2022-11-24T09:56:56.408Z,6
2022-11-24T09:57:59.143Z,7
2022-11-24T09:59:01.782Z,7
2022-11-24T10:00:04.427Z,8
2022-11-24T10:01:07.192Z,10
2022-11-24T10:02:10.082Z,9
2022-11-24T10:03:12.763Z,8
2022-11-24T10:04:15.710Z,7
2022-11-24T10:05:18.487Z,7
2022-11-24T10:06:21.348Z,7
2022-11-24T10:07:24.245Z,7
2022-11-24T10:08:26.997Z,7
2022-11-24T10:09:29.675Z,8
2022-11-24T10:10:32.356Z,9
2022-11-24T10:11:34.933Z,7
2022-11-24T10:12:37.762Z,8
2022-11-24T10:13:40.488Z,7
2022-11-24T10:14:43.108Z,7
2022-11-24T10:15:46.059Z,7
2022-11-24T10:16:51.404Z,7
2022-11-24T10:17:53.994Z,7
2022-11-24T10:18:56.641Z,6
2022-11-24T10:19:59.302Z,7
2022-11-24T10:21:01.986Z,6
2022-11-24T10:22:05.614Z,7
2022-11-24T10:23:08.342Z,8
2022-11-24T10:24:11.007Z,6
2022-11-24T10:25:13.736Z,7
2022-11-24T10:26:16.416Z,6
2022-11-24T10:27:19.074Z,5
2022-11-24T10:28:21.791Z,7
2022-11-24T10:29:24.433Z,7
2022-11-24T10:30:27.095Z,8
2022-11-24T10:31:29.939Z,7
2022-11-24T10:32:32.789Z,6
2022-11-24T10:33:35.484Z,6
2022-11-24T10:34:38.106Z,8
2022-11-24T10:35:50.756Z,17
2022-11-24T10:36:53.010Z,15
2022-11-24T10:37:55.626Z,9
2022-11-24T10:38:58.264Z,8
2022-11-24T10:40:00.998Z,7
2022-11-24T10:41:03.738Z,7
2022-11-24T10:42:06.432Z,6
2022-11-24T10:43:09.093Z,7
2022-11-24T10:44:11.768Z,7
2022-11-24T10:45:14.410Z,6
2022-11-24T10:46:17.311Z,6
2022-11-24T10:47:20.357Z,7
2022-11-24T10:48:23.195Z,5
2022-11-24T10:49:25.809Z,6
2022-11-24T10:50:28.442Z,6
2022-11-24T10:51:31.279Z,7
2022-11-24T10:52:34.307Z,7
2022-11-24T10:53:36.967Z,6
2022-11-24T10:54:41.609Z,6
2022-11-24T10:55:44.033Z,6
2022-11-24T10:56:46.776Z,10
2022-11-24T10:57:49.488Z,11
2022-11-24T10:58:53.001Z,19
2022-11-24T10:59:55.652Z,20
2022-11-24T11:00:59.039Z,19
2022-11-24T11:02:02.206Z,22
2022-11-24T11:03:05.475Z,20
2022-11-24T11:04:08.574Z,17
2022-11-24T11:05:11.262Z,13
2022-11-24T11:06:13.856Z,10
2022-11-24T11:07:19.270Z,8
2022-11-24T11:08:22.014Z,8
2022-11-24T11:09:24.841Z,10
2022-11-24T11:10:27.481Z,9
2022-11-24T11:11:30.511Z,10
2022-11-24T11:12:45.682Z,11
2022-11-24T11:13:47.681Z,12
2022-11-24T11:14:50.292Z,13
2022-11-24T11:15:53.135Z,14
2022-11-24T11:16:55.903Z,14
2022-11-24T11:17:59.448Z,17
2022-11-24T11:19:02.083Z,17
2022-11-24T11:20:05.361Z,16
2022-11-24T11:21:08.881Z,16
2022-11-24T11:22:11.642Z,17
2022-11-24T11:23:14.384Z,17
2022-11-24T11:24:17.032Z,17
2022-11-24T11:25:19.684Z,15
2022-11-24T11:26:22.383Z,14
2022-11-24T11:27:25.047Z,16
2022-11-24T11:28:27.803Z,13
2022-11-24T11:34:58.173Z,11
2022-11-24T11:36:00.751Z,8
2022-11-24T11:37:03.337Z,8
2022-11-24T11:38:05.969Z,7
2022-11-24T11:39:08.920Z,7
2022-11-24T11:40:14.337Z,7
2022-11-24T11:41:16.840Z,7
2022-11-24T11:42:45.757Z,8
2022-11-24T11:43:41.474Z,7
2022-11-24T11:44:44.111Z,7
2022-11-24T11:45:46.904Z,6
2022-11-24T11:46:49.730Z,8
2022-11-24T11:47:52.719Z,7
2022-11-24T11:48:55.575Z,8
2022-11-24T11:49:58.484Z,7
2022-11-24T11:51:22.673Z,8
2022-11-24T11:52:22.972Z,9
2022-11-24T11:53:25.545Z,7
2022-11-24T11:54:28.171Z,7
2022-11-24T11:55:30.843Z,7
2022-11-24T11:56:33.517Z,7
2022-11-24T11:57:36.190Z,7
2022-11-24T11:58:39.092Z,5
2022-11-24T11:59:41.847Z,6
2022-11-24T12:00:44.558Z,7
2022-11-24T12:01:47.240Z,7
2022-11-24T12:02:54.236Z,7
2022-11-24T12:03:57.366Z,7
2022-11-24T12:05:00.532Z,6
2022-11-24T12:06:03.208Z,7
2022-11-24T12:07:06.111Z,6
2022-11-24T12:08:13.471Z,4
2022-11-24T12:09:27.283Z,7
2022-11-24T12:10:28.632Z,7
2022-11-24T12:11:35.125Z,5
2022-11-24T12:12:37.782Z,4
2022-11-24T12:13:40.983Z,4
2022-11-24T12:14:43.600Z,4
2022-11-24T12:15:46.413Z,5
2022-11-24T12:16:49.251Z,4
2022-11-24T12:17:51.916Z,5
2022-11-24T12:18:59.194Z,6
2022-11-24T12:20:01.859Z,7
2022-11-24T12:21:04.477Z,8
2022-11-24T12:22:07.358Z,7
2022-11-24T12:23:13.740Z,7
2022-11-24T12:24:16.500Z,7
2022-11-24T12:25:19.588Z,6
2022-11-24T12:26:22.224Z,6
2022-11-24T12:27:24.909Z,6
2022-11-24T12:28:27.620Z,7
2022-11-24T12:29:30.513Z,6
2022-11-24T12:30:33.192Z,5
2022-11-24T12:31:36.111Z,4
2022-11-24T12:32:38.910Z,7
2022-11-24T12:33:51.051Z,10
2022-11-24T12:35:02.308Z,10
2022-11-24T12:36:05.059Z,10
2022-11-24T12:37:07.709Z,8
2022-11-24T12:38:10.366Z,7
2022-11-24T12:39:13.084Z,9
2022-11-24T12:40:15.801Z,7
2022-11-24T12:41:40.878Z,6
2022-11-24T12:42:40.590Z,5
2022-11-24T12:43:43.394Z,4
2022-11-24T12:44:46.028Z,5
2022-11-24T12:45:48.717Z,6
2022-11-24T12:46:51.572Z,4
2022-11-24T12:47:54.403Z,6
2022-11-24T12:48:58.032Z,4
2022-11-24T12:50:00.684Z,6
2022-11-24T12:51:03.383Z,6
2022-11-24T12:52:06.069Z,6
2022-11-24T12:53:08.723Z,7
2022-11-24T12:54:11.385Z,6
2022-11-24T12:55:14.018Z,6
2022-11-24T12:56:16.616Z,5
2022-11-24T12:57:19.329Z,4
2022-11-24T12:58:22.040Z,4
2022-11-24T12:59:24.737Z,4
2022-11-24T13:00:27.451Z,5
2022-11-24T13:01:30.226Z,4
2022-11-24T13:02:33.491Z,4
2022-11-24T13:03:36.631Z,4
2022-11-24T13:04:39.243Z,4
2022-11-24T13:05:41.900Z,5
2022-11-24T13:06:49.790Z,4
2022-11-24T13:07:52.346Z,4
2022-11-24T13:09:05.163Z,4
2022-11-24T13:10:07.406Z,4
2022-11-24T13:11:10.041Z,4
2022-11-24T13:12:12.685Z,5
2022-11-24T13:13:15.333Z,4
2022-11-24T13:14:17.983Z,6
2022-11-24T13:15:44.976Z,6
2022-11-24T13:17:13.250Z,6
2022-11-24T13:18:12.762Z,4
2022-11-24T13:19:15.457Z,4
2022-11-24T13:20:18.057Z,5
2022-11-24T13:21:20.676Z,5
2022-11-24T13:22:23.484Z,5
2022-11-24T13:23:26.340Z,4
2022-11-24T13:24:28.996Z,4
2022-11-24T13:25:32.316Z,5
2022-11-24T13:26:42.502Z,4
2022-11-24T13:27:44.777Z,4
2022-11-24T13:29:03.522Z,4
2022-11-24T13:30:09.921Z,4
2022-11-24T13:31:12.738Z,4
2022-11-24T13:32:15.599Z,4
2022-11-24T13:33:25.754Z,4
2022-11-24T13:34:29.725Z,4
2022-11-24T13:35:32.360Z,4
2022-11-24T13:36:35.265Z,4
2022-11-24T13:37:37.920Z,4
2022-11-24T13:38:40.552Z,4
2022-11-24T13:39:50.444Z,5
2022-11-24T13:41:13.243Z,4
2022-11-24T13:42:41.350Z,4
2022-11-24T13:43:36.922Z,4
2022-11-24T13:44:39.463Z,4
2022-11-24T13:45:42.187Z,4
2022-11-24T13:46:44.945Z,4
2022-11-24T13:47:47.658Z,4
2022-11-24T13:48:50.376Z,4
2022-11-24T13:49:53.159Z,4
2022-11-24T13:50:56.233Z,5
2022-11-24T13:51:58.901Z,4
2022-11-24T13:53:01.579Z,4
2022-11-24T13:54:04.237Z,4
2022-11-24T13:55:11.712Z,5
2022-11-24T13:56:14.509Z,5
2022-11-24T13:57:17.131Z,4
2022-11-24T13:58:19.907Z,4
2022-11-24T13:59:22.532Z,6
2022-11-24T14:00:25.201Z,7
2022-11-24T14:01:27.966Z,8
2022-11-24T14:02:31.161Z,11
2022-11-24T14:03:33.913Z,11
2022-11-24T14:04:37.228Z,11
2022-11-24T14:05:39.895Z,10
2022-11-24T14:06:42.628Z,11
2022-11-24T14:07:45.471Z,13
2022-11-24T14:08:48.239Z,13
2022-11-24T14:09:50.990Z,13
2022-11-24T14:10:53.594Z,17
2022-11-24T14:11:56.244Z,20
2022-11-24T14:12:58.818Z,19
2022-11-24T14:14:02.056Z,13
2022-11-24T14:15:04.676Z,8
2022-11-24T14:16:07.498Z,5
2022-11-24T14:17:10.331Z,4
2022-11-24T14:18:12.936Z,4
2022-11-24T14:19:15.599Z,4
2022-11-24T14:20:18.544Z,4
2022-11-24T14:21:21.310Z,4
2022-11-24T14:22:24.087Z,4
2022-11-24T14:23:26.770Z,4
2022-11-24T14:24:29.413Z,5
2022-11-24T14:25:32.512Z,4
2022-11-24T14:26:35.176Z,4
2022-11-24T14:27:37.840Z,4
2022-11-24T14:28:40.677Z,4
2022-11-24T14:29:44.131Z,4
2022-11-24T14:30:46.775Z,4
2022-11-24T14:31:49.476Z,4
2022-11-24T14:32:52.308Z,4
2022-11-24T14:33:54.975Z,6
2022-11-24T14:34:58.022Z,5
2022-11-24T14:36:00.976Z,4
2022-11-24T14:37:03.814Z,4
2022-11-24T14:38:06.456Z,4
2022-11-24T14:39:09.150Z,5
2022-11-24T14:40:11.826Z,4
2022-11-24T14:41:14.726Z,4
2022-11-24T14:42:17.389Z,4
2022-11-24T14:43:19.999Z,4
2022-11-24T14:44:22.695Z,4
2022-11-24T14:45:25.583Z,4
2022-11-24T14:46:28.349Z,4
2022-11-24T14:47:32.857Z,7
2022-11-24T14:48:35.396Z,6
2022-11-24T14:49:38.045Z,7
2022-11-24T14:50:40.897Z,6
2022-11-24T14:51:43.763Z,7
2022-11-24T14:52:46.406Z,7
2022-11-24T14:53:49.060Z,7
2022-11-24T14:54:51.915Z,7
2022-11-24T14:55:54.574Z,7
2022-11-24T14:56:57.264Z,7
2022-11-24T14:58:00.047Z,10
2022-11-24T14:59:02.818Z,8
2022-11-24T15:00:05.528Z,8
2022-11-24T15:01:08.352Z,7
2022-11-24T15:02:11.281Z,8
2022-11-24T15:03:14.635Z,7
2022-11-24T15:04:39.285Z,6
2022-11-24T15:05:39.169Z,6
2022-11-24T15:06:41.798Z,4
2022-11-24T15:07:44.679Z,5
2022-11-24T15:08:47.421Z,4
2022-11-24T15:09:53.806Z,4
2022-11-24T15:10:56.239Z,4
2022-11-24T15:11:58.871Z,4
2022-11-24T15:13:01.532Z,4
2022-11-24T15:14:04.154Z,6
2022-11-24T15:15:06.811Z,4
2022-11-24T15:16:09.641Z,4
2022-11-24T15:17:12.623Z,5
2022-11-24T15:18:15.278Z,5
2022-11-24T15:19:17.912Z,5
2022-11-24T15:20:20.580Z,5
2022-11-24T15:21:23.244Z,5
2022-11-24T15:22:25.878Z,5
2022-11-24T15:23:28.585Z,4
2022-11-24T15:24:31.215Z,5
2022-11-24T15:25:34.021Z,6
2022-11-24T15:26:42.422Z,7
2022-11-24T15:27:44.820Z,6
2022-11-24T15:28:47.437Z,7
2022-11-24T15:29:50.106Z,8
2022-11-24T15:30:52.757Z,7
2022-11-24T15:31:55.487Z,7
2022-11-24T15:32:58.255Z,6
2022-11-24T15:34:00.920Z,6
2022-11-24T15:35:03.571Z,6
2022-11-24T15:36:06.227Z,10
2022-11-24T15:37:08.884Z,11
2022-11-24T15:38:11.483Z,13